sensor_id;sensor_type;location;lat;lon;timestamp;pressure;altitude;pressure_sealevel;temperature;humidity
39301;BME280;25019;42.626;23.380;2023-06-10T00:02:28;94060.06;;;16.06;100.00
39301;BME280;25019;42.626;23.380;2023-06-10T00:04:53;94063.94;;;16.00;100.00
39301;BME280;25019;42.626;23.380;2023-06-10T00:07:19;94063.19;;;15.94;100.00
39301;BME280;25019;42.626;23.380;2023-06-10T00:09:45;94029.81;;;15.67;100.00
39301;BME280;25019;42.626;23.380;2023-06-10T00:12:11;94030.47;;;15.59;100.00
39301;BME280;25019;42.626;23.380;2023-06-10T00:14:40;94073.03;;;15.80;100.00
39301;BME280;25019;42.626;23.380;2023-06-10T00:17:08;94062.31;;;15.80;100.00
39301;BME280;25019;42.626;23.380;2023-06-10T00:19:34;94029.66;;;15.58;100.00
39301;BME280;25019;42.626;23.380;2023-06-10T00:22:00;94035.75;;;15.64;100.00
39301;BME280;25019;42.626;23.380;2023-06-10T00:24:26;94060.66;;;15.84;100.00
39301;BME280;25019;42.626;23.380;2023-06-10T00:26:51;94057.94;;;15.89;100.00
39301;BME280;25019;42.626;23.380;2023-06-10T00:29:17;94066.38;;;15.96;100.00
39301;BME280;25019;42.626;23.380;2023-06-10T00:31:44;94057.78;;;15.99;100.00
39301;BME280;25019;42.626;23.380;2023-06-10T00:34:12;94066.25;;;16.07;100.00
39301;BME280;25019;42.626;23.380;2023-06-10T00:36:37;94066.19;;;16.12;100.00
39301;BME280;25019;42.626;23.380;2023-06-10T00:39:03;94069.88;;;16.16;100.00
39301;BME280;25019;42.626;23.380;2023-06-10T00:41:30;93976.16;;;15.58;100.00
39301;BME280;25019;42.626;23.380;2023-06-10T00:43:56;94064.34;;;16.26;100.00
39301;BME280;25019;42.626;23.380;2023-06-10T00:46:23;94065.66;;;16.29;100.00
39301;BME280;25019;42.626;23.380;2023-06-10T00:48:49;94064.56;;;16.30;100.00
39301;BME280;25019;42.626;23.380;2023-06-10T00:51:16;94069.31;;;16.33;100.00
39301;BME280;25019;42.626;23.380;2023-06-10T00:53:43;94048.06;;;16.23;100.00
39301;BME280;25019;42.626;23.380;2023-06-10T00:56:10;94053.84;;;16.30;100.00
39301;BME280;25019;42.626;23.380;2023-06-10T00:58:36;94072.66;;;16.44;100.00
39301;BME280;25019;42.626;23.380;2023-06-10T01:01:02;94041.03;;;16.27;100.00
39301;BME280;25019;42.626;23.380;2023-06-10T01:03:29;94042.63;;;16.28;100.00
39301;BME280;25019;42.626;23.380;2023-06-10T01:06:06;94044.28;;;16.24;100.00
39301;BME280;25019;42.626;23.380;2023-06-10T01:08:44;94063.94;;;16.33;100.00
39301;BME280;25019;42.626;23.380;2023-06-10T01:11:20;94059.09;;;16.35;100.00
39301;BME280;25019;42.626;23.380;2023-06-10T01:13:50;94063.28;;;16.41;100.00
39301;BME280;25019;42.626;23.380;2023-06-10T01:16:18;94064.63;;;16.44;100.00
39301;BME280;25019;42.626;23.380;2023-06-10T01:18:44;94066.97;;;16.45;100.00
39301;BME280;25019;42.626;23.380;2023-06-10T01:21:19;94067.19;;;16.49;100.00
39301;BME280;25019;42.626;23.380;2023-06-10T01:23:46;94070.75;;;16.44;100.00
39301;BME280;25019;42.626;23.380;2023-06-10T01:26:12;94071.72;;;16.35;100.00
39301;BME280;25019;42.626;23.380;2023-06-10T01:28:51;94074.28;;;16.26;100.00
39301;BME280;25019;42.626;23.380;2023-06-10T01:31:36;94080.13;;;16.28;100.00
39301;BME280;25019;42.626;23.380;2023-06-10T01:34:08;94067.00;;;16.26;100.00
39301;BME280;25019;42.626;23.380;2023-06-10T01:36:35;94071.00;;;16.29;100.00
39301;BME280;25019;42.626;23.380;2023-06-10T01:39:03;94074.66;;;16.33;100.00
39301;BME280;25019;42.626;23.380;2023-06-10T01:41:30;93966.66;;;15.66;100.00
39301;BME280;25019;42.626;23.380;2023-06-10T01:43:56;94057.09;;;16.27;100.00
39301;BME280;25019;42.626;23.380;2023-06-10T01:46:22;94058.28;;;16.21;100.00
39301;BME280;25019;42.626;23.380;2023-06-10T01:48:48;94060.88;;;16.26;100.00
39301;BME280;25019;42.626;23.380;2023-06-10T01:51:15;94065.94;;;16.27;100.00
39301;BME280;25019;42.626;23.380;2023-06-10T01:53:40;94043.34;;;16.14;100.00
39301;BME280;25019;42.626;23.380;2023-06-10T01:56:06;94051.75;;;16.27;100.00
39301;BME280;25019;42.626;23.380;2023-06-10T01:58:32;94050.16;;;16.26;100.00
39301;BME280;25019;42.626;23.380;2023-06-10T02:00:57;94032.84;;;16.18;100.00
39301;BME280;25019;42.626;23.380;2023-06-10T02:03:23;94062.22;;;16.42;100.00
39301;BME280;25019;42.626;23.380;2023-06-10T02:05:49;94007.81;;;16.09;100.00
39301;BME280;25019;42.626;23.380;2023-06-10T02:08:15;94031.69;;;16.24;100.00
39301;BME280;25019;42.626;23.380;2023-06-10T02:10:40;94063.28;;;16.41;100.00
39301;BME280;25019;42.626;23.380;2023-06-10T02:13:06;94057.16;;;16.41;100.00
39301;BME280;25019;42.626;23.380;2023-06-10T02:15:33;94014.19;;;16.13;100.00
39301;BME280;25019;42.626;23.380;2023-06-10T02:17:59;94055.06;;;16.38;100.00
39301;BME280;25019;42.626;23.380;2023-06-10T02:20:24;94049.97;;;16.36;100.00
39301;BME280;25019;42.626;23.380;2023-06-10T02:22:50;94052.16;;;16.34;100.00
39301;BME280;25019;42.626;23.380;2023-06-10T02:25:16;94047.09;;;16.32;100.00
39301;BME280;25019;42.626;23.380;2023-06-10T02:27:42;94051.94;;;16.30;100.00
39301;BME280;25019;42.626;23.380;2023-06-10T02:30:08;94049.56;;;16.29;100.00
39301;BME280;25019;42.626;23.380;2023-06-10T02:32:36;94033.78;;;16.27;100.00
39301;BME280;25019;42.626;23.380;2023-06-10T02:35:02;94035.69;;;16.27;100.00
39301;BME280;25019;42.626;23.380;2023-06-10T02:37:29;94036.44;;;16.27;100.00
39301;BME280;25019;42.626;23.380;2023-06-10T02:39:55;94015.28;;;16.12;100.00
39301;BME280;25019;42.626;23.380;2023-06-10T02:42:22;93966.13;;;15.83;100.00
39301;BME280;25019;42.626;23.380;2023-06-10T02:44:48;94029.31;;;16.23;100.00
39301;BME280;25019;42.626;23.380;2023-06-10T02:47:20;94025.88;;;16.17;100.00
39301;BME280;25019;42.626;23.380;2023-06-10T02:49:46;94033.16;;;16.16;100.00
39301;BME280;25019;42.626;23.380;2023-06-10T02:52:12;94029.19;;;16.14;100.00
39301;BME280;25019;42.626;23.380;2023-06-10T02:54:38;94027.59;;;16.13;100.00
39301;BME280;25019;42.626;23.380;2023-06-10T02:57:06;94017.47;;;16.10;100.00
39301;BME280;25019;42.626;23.380;2023-06-10T02:59:33;93970.47;;;15.79;100.00
39301;BME280;25019;42.626;23.380;2023-06-10T03:01:59;94016.88;;;16.13;100.00
39301;BME280;25019;42.626;23.380;2023-06-10T03:04:28;94015.47;;;16.15;100.00
39301;BME280;25019;42.626;23.380;2023-06-10T03:07:03;94022.75;;;16.15;100.00
39301;BME280;25019;42.626;23.380;2023-06-10T03:09:32;94015.88;;;16.09;100.00
39301;BME280;25019;42.626;23.380;2023-06-10T03:11:59;94029.06;;;16.19;100.00
39301;BME280;25019;42.626;23.380;2023-06-10T03:14:29;94021.84;;;16.20;100.00
39301;BME280;25019;42.626;23.380;2023-06-10T03:16:55;93955.09;;;15.71;100.00
39301;BME280;25019;42.626;23.380;2023-06-10T03:19:23;94020.06;;;16.15;100.00
39301;BME280;25019;42.626;23.380;2023-06-10T03:22:08;94019.94;;;16.20;100.00
39301;BME280;25019;42.626;23.380;2023-06-10T03:24:37;93978.97;;;15.86;100.00
39301;BME280;25019;42.626;23.380;2023-06-10T03:27:07;94010.44;;;16.14;100.00
39301;BME280;25019;42.626;23.380;2023-06-10T03:29:34;94013.22;;;16.23;100.00
39301;BME280;25019;42.626;23.380;2023-06-10T03:32:00;94025.06;;;16.36;100.00
39301;BME280;25019;42.626;23.380;2023-06-10T03:34:27;94044.47;;;16.46;100.00
39301;BME280;25019;42.626;23.380;2023-06-10T03:36:53;94025.19;;;16.44;100.00
39301;BME280;25019;42.626;23.380;2023-06-10T03:39:19;94000.16;;;16.35;100.00
39301;BME280;25019;42.626;23.380;2023-06-10T03:41:45;93952.66;;;16.08;100.00
39301;BME280;25019;42.626;23.380;2023-06-10T03:44:11;94047.19;;;16.74;100.00
39301;BME280;25019;42.626;23.380;2023-06-10T03:46:37;93955.38;;;16.22;100.00
39301;BME280;25019;42.626;23.380;2023-06-10T03:49:04;93977.03;;;16.39;100.00
39301;BME280;25019;42.626;23.380;2023-06-10T03:51:31;94050.41;;;16.90;100.00
39301;BME280;25019;42.626;23.380;2023-06-10T03:53:56;94055.44;;;16.92;100.00
39301;BME280;25019;42.626;23.380;2023-06-10T03:56:22;94052.50;;;16.93;100.00
39301;BME280;25019;42.626;23.380;2023-06-10T03:58:48;94025.06;;;16.83;100.00
39301;BME280;25019;42.626;23.380;2023-06-10T04:01:14;94051.22;;;17.05;100.00
39301;BME280;25019;42.626;23.380;2023-06-10T04:03:39;94057.41;;;17.05;100.00
39301;BME280;25019;42.626;23.380;2023-06-10T04:06:07;94048.84;;;17.03;100.00
39301;BME280;25019;42.626;23.380;2023-06-10T04:08:33;94052.72;;;16.97;100.00
39301;BME280;25019;42.626;23.380;2023-06-10T04:10:59;94043.63;;;16.79;100.00
39301;BME280;25019;42.626;23.380;2023-06-10T04:13:26;94051.47;;;16.75;100.00
39301;BME280;25019;42.626;23.380;2023-06-10T04:15:56;94053.84;;;16.77;100.00
39301;BME280;25019;42.626;23.380;2023-06-10T04:18:22;94045.91;;;16.72;100.00
39301;BME280;25019;42.626;23.380;2023-06-10T04:20:49;94040.59;;;16.53;100.00
39301;BME280;25019;42.626;23.380;2023-06-10T04:23:14;94034.97;;;16.35;100.00
39301;BME280;25019;42.626;23.380;2023-06-10T04:25:42;94069.88;;;16.49;100.00
39301;BME280;25019;42.626;23.380;2023-06-10T04:28:08;94020.41;;;16.08;100.00
39301;BME280;25019;42.626;23.380;2023-06-10T04:30:35;94033.84;;;16.22;100.00
39301;BME280;25019;42.626;23.380;2023-06-10T04:33:01;94070.25;;;16.42;100.00
39301;BME280;25019;42.626;23.380;2023-06-10T04:35:27;94064.06;;;16.28;100.00
39301;BME280;25019;42.626;23.380;2023-06-10T04:37:54;93999.34;;;15.82;100.00
39301;BME280;25019;42.626;23.380;2023-06-10T04:40:20;94067.66;;;16.37;100.00
39301;BME280;25019;42.626;23.380;2023-06-10T04:42:46;94059.03;;;16.40;100.00
39301;BME280;25019;42.626;23.380;2023-06-10T04:45:12;94071.84;;;16.43;100.00
39301;BME280;25019;42.626;23.380;2023-06-10T04:47:39;94057.50;;;16.34;100.00
39301;BME280;25019;42.626;23.380;2023-06-10T04:50:06;94010.44;;;16.14;100.00
39301;BME280;25019;42.626;23.380;2023-06-10T04:52:32;94061.66;;;16.59;100.00
39301;BME280;25019;42.626;23.380;2023-06-10T04:54:59;94018.03;;;16.40;100.00
39301;BME280;25019;42.626;23.380;2023-06-10T04:57:25;94042.50;;;16.66;100.00
39301;BME280;25019;42.626;23.380;2023-06-10T04:59:52;94038.84;;;16.76;100.00
39301;BME280;25019;42.626;23.380;2023-06-10T05:02:17;94057.28;;;16.97;100.00
39301;BME280;25019;42.626;23.380;2023-06-10T05:04:43;94054.22;;;17.03;100.00
39301;BME280;25019;42.626;23.380;2023-06-10T05:07:09;93972.19;;;16.55;100.00
39301;BME280;25019;42.626;23.380;2023-06-10T05:09:34;94055.41;;;17.11;100.00
39301;BME280;25019;42.626;23.380;2023-06-10T05:12:00;94059.00;;;17.20;100.00
39301;BME280;25019;42.626;23.380;2023-06-10T05:14:26;94001.81;;;16.92;100.00
39301;BME280;25019;42.626;23.380;2023-06-10T05:16:51;94049.63;;;17.32;100.00
39301;BME280;25019;42.626;23.380;2023-06-10T05:19:17;94049.34;;;17.33;100.00
39301;BME280;25019;42.626;23.380;2023-06-10T05:21:44;94040.28;;;17.43;100.00
39301;BME280;25019;42.626;23.380;2023-06-10T05:24:10;94049.09;;;17.58;100.00
39301;BME280;25019;42.626;23.380;2023-06-10T05:26:35;94047.31;;;17.67;100.00
39301;BME280;25019;42.626;23.380;2023-06-10T05:29:05;94045.59;;;17.71;100.00
39301;BME280;25019;42.626;23.380;2023-06-10T05:31:31;93987.50;;;17.39;100.00
39301;BME280;25019;42.626;23.380;2023-06-10T05:33:56;94031.75;;;17.78;100.00
39301;BME280;25019;42.626;23.380;2023-06-10T05:36:22;94052.41;;;18.05;100.00
39301;BME280;25019;42.626;23.380;2023-06-10T05:38:50;94038.66;;;18.07;100.00
39301;BME280;25019;42.626;23.380;2023-06-10T05:41:16;94046.72;;;18.30;100.00
39301;BME280;25019;42.626;23.380;2023-06-10T05:43:41;94054.56;;;18.40;100.00
39301;BME280;25019;42.626;23.380;2023-06-10T05:46:07;94031.78;;;18.37;100.00
39301;BME280;25019;42.626;23.380;2023-06-10T05:48:33;94034.91;;;18.53;100.00
39301;BME280;25019;42.626;23.380;2023-06-10T05:50:59;94047.69;;;18.79;100.00
39301;BME280;25019;42.626;23.380;2023-06-10T05:53:24;94055.75;;;19.02;100.00
39301;BME280;25019;42.626;23.380;2023-06-10T05:55:50;94067.66;;;19.19;100.00
39301;BME280;25019;42.626;23.380;2023-06-10T05:58:17;94051.53;;;19.27;100.00
39301;BME280;25019;42.626;23.380;2023-06-10T06:00:43;94065.22;;;19.49;100.00
39301;BME280;25019;42.626;23.380;2023-06-10T06:03:09;93999.59;;;19.18;100.00
39301;BME280;25019;42.626;23.380;2023-06-10T06:05:36;94038.81;;;19.59;100.00
39301;BME280;25019;42.626;23.380;2023-06-10T06:08:06;94064.19;;;19.76;100.00
39301;BME280;25019;42.626;23.380;2023-06-10T06:10:32;94024.84;;;19.57;100.00
39301;BME280;25019;42.626;23.380;2023-06-10T06:12:59;94069.31;;;19.95;100.00
39301;BME280;25019;42.626;23.380;2023-06-10T06:15:25;94047.22;;;19.84;100.00
39301;BME280;25019;42.626;23.380;2023-06-10T06:17:51;94061.81;;;19.83;100.00
39301;BME280;25019;42.626;23.380;2023-06-10T06:20:20;94063.88;;;19.86;100.00
39301;BME280;25019;42.626;23.380;2023-06-10T06:22:45;94038.81;;;19.68;100.00
39301;BME280;25019;42.626;23.380;2023-06-10T06:25:11;94004.53;;;19.42;100.00
39301;BME280;25019;42.626;23.380;2023-06-10T06:27:37;94058.63;;;19.72;100.00
39301;BME280;25019;42.626;23.380;2023-06-10T06:30:03;93996.63;;;19.37;100.00
39301;BME280;25019;42.626;23.380;2023-06-10T06:32:29;94063.28;;;19.98;100.00
39301;BME280;25019;42.626;23.380;2023-06-10T06:34:55;94066.31;;;20.14;100.00
39301;BME280;25019;42.626;23.380;2023-06-10T06:37:24;94068.22;;;20.23;100.00
39301;BME280;25019;42.626;23.380;2023-06-10T06:39:55;94035.88;;;20.14;100.00
39301;BME280;25019;42.626;23.380;2023-06-10T06:42:21;94067.91;;;20.33;100.00
39301;BME280;25019;42.626;23.380;2023-06-10T06:44:56;94066.00;;;20.16;100.00
39301;BME280;25019;42.626;23.380;2023-06-10T06:47:21;94053.13;;;19.95;100.00
39301;BME280;25019;42.626;23.380;2023-06-10T06:49:47;94063.31;;;20.07;100.00
39301;BME280;25019;42.626;23.380;2023-06-10T06:52:14;94062.84;;;20.14;100.00
39301;BME280;25019;42.626;23.380;2023-06-10T06:54:40;94058.38;;;20.09;100.00
39301;BME280;25019;42.626;23.380;2023-06-10T06:57:06;94052.06;;;20.05;100.00
39301;BME280;25019;42.626;23.380;2023-06-10T06:59:32;94062.19;;;20.08;100.00
39301;BME280;25019;42.626;23.380;2023-06-10T07:01:58;94020.13;;;19.72;100.00
39301;BME280;25019;42.626;23.380;2023-06-10T07:04:24;94053.31;;;19.90;100.00
39301;BME280;25019;42.626;23.380;2023-06-10T07:06:50;94060.13;;;20.05;100.00
39301;BME280;25019;42.626;23.380;2023-06-10T07:09:16;94049.81;;;20.33;100.00
39301;BME280;25019;42.626;23.380;2023-06-10T07:11:41;94042.47;;;20.60;100.00
39301;BME280;25019;42.626;23.380;2023-06-10T07:14:07;94049.00;;;20.77;100.00
39301;BME280;25019;42.626;23.380;2023-06-10T07:16:33;94046.31;;;20.77;100.00
39301;BME280;25019;42.626;23.380;2023-06-10T07:18:59;94053.53;;;20.94;100.00
39301;BME280;25019;42.626;23.380;2023-06-10T07:21:25;94019.84;;;21.00;100.00
39301;BME280;25019;42.626;23.380;2023-06-10T07:23:50;94017.50;;;20.99;100.00
39301;BME280;25019;42.626;23.380;2023-06-10T07:26:19;93996.16;;;21.15;100.00
39301;BME280;25019;42.626;23.380;2023-06-10T07:28:44;94036.88;;;21.69;100.00
39301;BME280;25019;42.626;23.380;2023-06-10T07:31:10;94040.56;;;22.07;100.00
39301;BME280;25019;42.626;23.380;2023-06-10T07:33:37;94036.22;;;22.15;100.00
39301;BME280;25019;42.626;23.380;2023-06-10T07:36:05;94031.00;;;22.31;100.00
39301;BME280;25019;42.626;23.380;2023-06-10T07:38:31;94021.16;;;22.48;100.00
39301;BME280;25019;42.626;23.380;2023-06-10T07:40:56;94025.03;;;23.05;100.00
39301;BME280;25019;42.626;23.380;2023-06-10T07:43:22;94014.22;;;23.42;100.00
39301;BME280;25019;42.626;23.380;2023-06-10T07:45:48;94025.16;;;23.71;100.00
39301;BME280;25019;42.626;23.380;2023-06-10T07:48:13;94031.13;;;23.89;100.00
39301;BME280;25019;42.626;23.380;2023-06-10T07:50:39;94028.47;;;24.17;96.63
39301;BME280;25019;42.626;23.380;2023-06-10T07:53:06;94030.81;;;24.60;91.01
39301;BME280;25019;42.626;23.380;2023-06-10T07:55:31;93992.44;;;24.61;86.32
39301;BME280;25019;42.626;23.380;2023-06-10T07:57:57;94032.88;;;24.79;79.60
39301;BME280;25019;42.626;23.380;2023-06-10T08:00:23;94026.16;;;24.60;77.77
39301;BME280;25019;42.626;23.380;2023-06-10T08:02:48;94034.66;;;24.59;76.90
39301;BME280;25019;42.626;23.380;2023-06-10T08:05:14;94011.63;;;24.24;75.06
39301;BME280;25019;42.626;23.380;2023-06-10T08:07:40;93955.13;;;23.60;75.31
39301;BME280;25019;42.626;23.380;2023-06-10T08:10:06;94032.75;;;23.65;75.16
39301;BME280;25019;42.626;23.380;2023-06-10T08:12:33;94022.56;;;23.25;77.57
39301;BME280;25019;42.626;23.380;2023-06-10T08:14:59;94026.44;;;23.36;79.49
39301;BME280;25019;42.626;23.380;2023-06-10T08:17:25;94018.41;;;23.40;76.73
39301;BME280;25019;42.626;23.380;2023-06-10T08:19:50;93950.31;;;23.04;76.86
39301;BME280;25019;42.626;23.380;2023-06-10T08:22:16;94004.75;;;23.36;76.88
39301;BME280;25019;42.626;23.380;2023-06-10T08:24:42;93983.88;;;23.24;76.51
39301;BME280;25019;42.626;23.380;2023-06-10T08:27:07;94014.53;;;23.16;77.15
39301;BME280;25019;42.626;23.380;2023-06-10T08:29:33;94026.50;;;23.15;77.33
39301;BME280;25019;42.626;23.380;2023-06-10T08:31:59;94008.44;;;22.94;74.35
39301;BME280;25019;42.626;23.380;2023-06-10T08:34:24;93993.63;;;22.92;73.94
39301;BME280;25019;42.626;23.380;2023-06-10T08:36:50;93985.72;;;22.74;74.23
39301;BME280;25019;42.626;23.380;2023-06-10T08:39:19;93997.88;;;22.68;76.62
39301;BME280;25019;42.626;23.380;2023-06-10T08:41:51;93986.91;;;22.52;78.01
39301;BME280;25019;42.626;23.380;2023-06-10T08:44:30;93978.41;;;22.20;78.35
39301;BME280;25019;42.626;23.380;2023-06-10T08:46:59;94013.91;;;22.39;79.71
39301;BME280;25019;42.626;23.380;2023-06-10T08:49:26;93997.47;;;22.44;78.23
39301;BME280;25019;42.626;23.380;2023-06-10T08:51:55;94005.84;;;22.52;76.26
39301;BME280;25019;42.626;23.380;2023-06-10T08:54:27;94003.94;;;22.52;71.42
39301;BME280;25019;42.626;23.380;2023-06-10T08:56:54;93963.72;;;22.29;67.38
39301;BME280;25019;42.626;23.380;2023-06-10T08:59:21;93992.09;;;22.57;66.86
39301;BME280;25019;42.626;23.380;2023-06-10T09:01:47;93982.16;;;22.49;64.94
39301;BME280;25019;42.626;23.380;2023-06-10T09:04:13;93992.19;;;22.48;63.95
39301;BME280;25019;42.626;23.380;2023-06-10T09:06:40;93987.84;;;22.35;64.76
39301;BME280;25019;42.626;23.380;2023-06-10T09:09:06;93988.38;;;22.28;64.89
39301;BME280;25019;42.626;23.380;2023-06-10T09:11:33;93991.81;;;22.37;64.89
39301;BME280;25019;42.626;23.380;2023-06-10T09:13:58;93910.41;;;21.54;62.78
39301;BME280;25019;42.626;23.380;2023-06-10T09:16:25;93975.03;;;21.89;63.84
39301;BME280;25019;42.626;23.380;2023-06-10T09:18:51;93985.22;;;22.05;64.86
39301;BME280;25019;42.626;23.380;2023-06-10T09:21:24;93943.44;;;22.02;63.59
39301;BME280;25019;42.626;23.380;2023-06-10T09:23:51;93982.16;;;22.49;63.47
39301;BME280;25019;42.626;23.380;2023-06-10T09:26:17;93980.41;;;22.65;63.55
39301;BME280;25019;42.626;23.380;2023-06-10T09:28:49;93972.75;;;22.80;63.30
39301;BME280;25019;42.626;23.380;2023-06-10T09:31:18;93901.00;;;22.49;62.57
39301;BME280;25019;42.626;23.380;2023-06-10T09:33:45;93976.59;;;23.03;62.08
39301;BME280;25019;42.626;23.380;2023-06-10T09:36:10;93964.19;;;23.02;62.81
39301;BME280;25019;42.626;23.380;2023-06-10T09:38:36;93962.03;;;23.20;61.12
39301;BME280;25019;42.626;23.380;2023-06-10T09:41:03;93969.84;;;23.34;60.03
39301;BME280;25019;42.626;23.380;2023-06-10T09:43:40;93952.59;;;23.27;59.86
39301;BME280;25019;42.626;23.380;2023-06-10T09:46:07;93908.09;;;23.15;59.75
39301;BME280;25019;42.626;23.380;2023-06-10T09:48:43;93968.06;;;23.51;58.66
39301;BME280;25019;42.626;23.380;2023-06-10T09:51:09;93914.22;;;23.00;57.42
39301;BME280;25019;42.626;23.380;2023-06-10T09:53:35;93960.59;;;23.48;57.19
39301;BME280;25019;42.626;23.380;2023-06-10T09:56:01;93957.16;;;23.63;57.47
39301;BME280;25019;42.626;23.380;2023-06-10T09:58:39;93886.34;;;23.12;56.64
39301;BME280;25019;42.626;23.380;2023-06-10T10:01:12;93953.53;;;23.72;57.52
39301;BME280;25019;42.626;23.380;2023-06-10T10:03:49;93928.41;;;23.59;57.22
39301;BME280;25019;42.626;23.380;2023-06-10T10:06:16;93948.59;;;23.61;57.59
39301;BME280;25019;42.626;23.380;2023-06-10T10:08:43;93949.50;;;23.66;57.24
39301;BME280;25019;42.626;23.380;2023-06-10T10:11:09;93947.75;;;23.86;57.73
39301;BME280;25019;42.626;23.380;2023-06-10T10:13:35;93932.22;;;24.11;57.54
39301;BME280;25019;42.626;23.380;2023-06-10T10:16:15;93925.78;;;24.03;57.46
39301;BME280;25019;42.626;23.380;2023-06-10T10:18:46;93926.78;;;24.11;58.93
39301;BME280;25019;42.626;23.380;2023-06-10T10:21:13;93931.84;;;24.13;58.99
39301;BME280;25019;42.626;23.380;2023-06-10T10:23:53;93872.22;;;23.72;57.16
39301;BME280;25019;42.626;23.380;2023-06-10T10:26:21;93927.53;;;24.24;59.78
39301;BME280;25019;42.626;23.380;2023-06-10T10:31:29;93936.97;;;24.30;57.15
39301;BME280;25019;42.626;23.380;2023-06-10T10:33:59;93874.53;;;24.14;56.38
39301;BME280;25019;42.626;23.380;2023-06-10T10:36:25;93932.03;;;24.64;56.42
39301;BME280;25019;42.626;23.380;2023-06-10T10:38:52;93926.19;;;24.78;55.04
39301;BME280;25019;42.626;23.380;2023-06-10T10:41:19;93835.44;;;24.31;56.01
39301;BME280;25019;42.626;23.380;2023-06-10T10:43:46;93909.53;;;24.96;54.64
39301;BME280;25019;42.626;23.380;2023-06-10T10:46:15;93910.09;;;25.37;54.56
39301;BME280;25019;42.626;23.380;2023-06-10T10:48:41;93907.44;;;25.41;52.54
39301;BME280;25019;42.626;23.380;2023-06-10T10:51:09;93900.63;;;25.31;51.98
39301;BME280;25019;42.626;23.380;2023-06-10T10:53:37;93903.22;;;25.60;51.08
39301;BME280;25019;42.626;23.380;2023-06-10T10:56:08;93906.22;;;25.54;51.70
39301;BME280;25019;42.626;23.380;2023-06-10T10:58:37;93897.91;;;25.67;51.83
39301;BME280;25019;42.626;23.380;2023-06-10T11:01:14;93897.78;;;25.60;50.82
39301;BME280;25019;42.626;23.380;2023-06-10T11:03:45;93897.03;;;25.43;52.10
39301;BME280;25019;42.626;23.380;2023-06-10T11:06:15;93894.66;;;25.06;51.18
39301;BME280;25019;42.626;23.380;2023-06-10T11:11:24;93888.19;;;25.66;50.24
39301;BME280;25019;42.626;23.380;2023-06-10T11:16:42;93869.00;;;25.78;50.86
39301;BME280;25019;42.626;23.380;2023-06-10T11:19:08;93873.94;;;25.92;50.46
39301;BME280;25019;42.626;23.380;2023-06-10T11:21:57;93876.81;;;25.99;50.66
39301;BME280;25019;42.626;23.380;2023-06-10T11:24:23;93869.69;;;25.95;49.11
39301;BME280;25019;42.626;23.380;2023-06-10T11:26:49;93860.00;;;26.13;49.06
39301;BME280;25019;42.626;23.380;2023-06-10T11:29:15;93872.69;;;26.29;49.44
39301;BME280;25019;42.626;23.380;2023-06-10T11:31:45;93800.56;;;25.96;48.87
39301;BME280;25019;42.626;23.380;2023-06-10T11:34:12;93865.44;;;26.60;49.79
39301;BME280;25019;42.626;23.380;2023-06-10T11:36:40;93805.03;;;26.27;49.32
39301;BME280;25019;42.626;23.380;2023-06-10T11:39:08;93850.50;;;26.50;49.67
39301;BME280;25019;42.626;23.380;2023-06-10T11:41:35;93817.72;;;26.43;49.50
39301;BME280;25019;42.626;23.380;2023-06-10T11:44:04;93802.38;;;26.31;47.64
39301;BME280;25019;42.626;23.380;2023-06-10T11:46:30;93826.19;;;26.38;46.89
39301;BME280;25019;42.626;23.380;2023-06-10T11:48:58;93850.28;;;26.82;45.60
39301;BME280;25019;42.626;23.380;2023-06-10T11:51:30;93835.66;;;26.71;46.79
39301;BME280;25019;42.626;23.380;2023-06-10T11:53:55;93841.41;;;26.89;46.43
39301;BME280;25019;42.626;23.380;2023-06-10T11:56:29;93833.41;;;27.00;44.51
39301;BME280;25019;42.626;23.380;2023-06-10T12:01:25;93845.81;;;27.51;44.56
39301;BME280;25019;42.626;23.380;2023-06-10T12:04:04;93836.66;;;27.40;45.22
39301;BME280;25019;42.626;23.380;2023-06-10T12:06:43;93836.09;;;27.27;46.14
39301;BME280;25019;42.626;23.380;2023-06-10T12:11:42;93840.56;;;26.85;44.76
39301;BME280;25019;42.626;23.380;2023-06-10T12:14:09;93831.72;;;26.91;44.55
39301;BME280;25019;42.626;23.380;2023-06-10T12:16:34;93838.50;;;27.01;42.96
39301;BME280;25019;42.626;23.380;2023-06-10T12:19:05;93832.66;;;27.03;43.69
39301;BME280;25019;42.626;23.380;2023-06-10T12:21:32;93832.09;;;27.17;43.65
39301;BME280;25019;42.626;23.380;2023-06-10T12:24:01;93835.50;;;27.41;43.45
39301;BME280;25019;42.626;23.380;2023-06-10T12:26:42;93826.84;;;27.62;43.73
39301;BME280;25019;42.626;23.380;2023-06-10T12:29:19;93831.97;;;27.67;43.52
39301;BME280;25019;42.626;23.380;2023-06-10T12:32:02;93831.78;;;27.87;41.93
39301;BME280;25019;42.626;23.380;2023-06-10T12:34:38;93827.28;;;28.02;42.15
39301;BME280;25019;42.626;23.380;2023-06-10T12:37:05;93785.53;;;27.98;41.86
39301;BME280;25019;42.626;23.380;2023-06-10T12:39:32;93823.28;;;28.30;42.29
39301;BME280;25019;42.626;23.380;2023-06-10T12:41:59;93821.34;;;28.30;42.88
39301;BME280;25019;42.626;23.380;2023-06-10T12:44:29;93807.41;;;28.39;43.40
39301;BME280;25019;42.626;23.380;2023-06-10T12:46:55;93755.06;;;28.33;42.49
39301;BME280;25019;42.626;23.380;2023-06-10T12:49:21;93739.53;;;27.96;42.74
39301;BME280;25019;42.626;23.380;2023-06-10T12:51:47;93807.81;;;28.45;42.86
39301;BME280;25019;42.626;23.380;2023-06-10T12:54:13;93804.28;;;28.40;42.02
39301;BME280;25019;42.626;23.380;2023-06-10T12:56:39;93781.03;;;28.16;42.69
39301;BME280;25019;42.626;23.380;2023-06-10T12:59:04;93772.81;;;27.75;41.06